Cooks, Michigan
Current Conditions -  °F | °C
As of 11:15 AM on Thursday 18 Dec 2014 (Local Time) from KISQ Reporting Station
Clear Clear  
Wind Chill: 12°   Ceiling: Unl
Heat Index: 23°   Visibility: 10mi
Dew Point: 13°   Wind: 10mph
Humidity: 68%   Direction: 10°N
Pressure: 30.27"   Gusts: NA
Location:  45.92°N, 86.48°W
Report Text: KISQ 181615Z AUTO 01009KT 10SM CLR M05/M10 A3027 RMK AO2 T10521103
Loading
Personal Weather Stations






























Interactive Weather Map New forecast layout! Learn more

10-Day Weather Forecast

Advertisements
Track Severe Weather on mobile